Time;durP1;ratioP1;P1;durP2;ratioP2;P2;SDS_P1;SDS_P2;PMS_P1;PMS_P2;Temp;Humidity;BMP_temperature;BMP_pressure;BME280_temperature;BME280_humidity;BME280_pressure;Samples;Min_cycle;Max_cycle;Signal;HPM_P1;HPM_P2
2021/07/06 00:05:14;;;;;;;4.13;1.48;;;18.00;99.90;;;;;;12398657;28;20054;-40
2021/07/06 00:11:16;;;;;;;2.53;1.50;;;18.00;99.90;;;;;;12398024;28;20125;-40
2021/07/06 00:17:19;;;;;;;3.75;1.58;;;18.00;99.90;;;;;;12398359;28;20053;-40
2021/07/06 00:23:21;;;;;;;2.97;1.63;;;17.90;99.90;;;;;;12394311;28;20054;-40
2021/07/06 00:29:22;;;;;;;5.03;1.48;;;17.90;99.90;;;;;;12398532;28;20043;-40
2021/07/06 00:35:24;;;;;;;2.47;1.45;;;18.00;99.90;;;;;;12399280;28;20752;-41
2021/07/06 00:41:29;;;;;;;3.58;1.58;;;18.00;99.90;;;;;;12390980;28;20046;-40
2021/07/06 00:47:36;;;;;;;3.00;1.40;;;18.00;99.90;;;;;;12395259;28;20111;-40
2021/07/06 00:53:39;;;;;;;2.67;1.33;;;18.00;99.90;;;;;;12397375;28;20564;-40
2021/07/06 00:59:40;;;;;;;3.25;1.38;;;17.90;99.90;;;;;;12394956;28;20450;-41
2021/07/06 01:05:42;;;;;;;3.53;1.50;;;17.90;99.90;;;;;;12393166;28;20100;-41
2021/07/06 01:11:45;;;;;;;3.05;1.30;;;17.90;99.90;;;;;;12399606;28;20119;-40
2021/07/06 01:18:00;;;;;;;3.58;1.30;;;18.00;99.90;;;;;;12393301;28;20101;-42
2021/07/06 01:24:02;;;;;;;4.63;1.30;;;18.00;99.90;;;;;;12397163;28;20080;-41
2021/07/06 01:30:07;;;;;;;3.97;1.50;;;18.00;99.90;;;;;;12393341;28;20111;-40
2021/07/06 01:36:09;;;;;;;2.35;1.30;;;18.00;99.90;;;;;;12392600;28;20042;-41
2021/07/06 01:42:15;;;;;;;3.45;1.38;;;17.90;99.90;;;;;;12392190;28;20482;-40
2021/07/06 01:48:17;;;;;;;2.90;1.40;;;18.00;99.90;;;;;;12396154;28;20169;-40
2021/07/06 01:54:18;;;;;;;3.45;1.70;;;17.90;99.90;;;;;;12393964;28;20069;-40
2021/07/06 02:00:23;;;;;;;4.25;1.60;;;17.90;99.90;;;;;;12389309;28;20050;-41
2021/07/06 02:06:25;;;;;;;3.58;1.33;;;17.90;99.90;;;;;;12392286;28;20082;-40
2021/07/06 02:12:27;;;;;;;3.00;1.40;;;17.90;99.90;;;;;;12391179;28;20046;-40
2021/07/06 02:18:28;;;;;;;2.47;1.30;;;17.80;99.90;;;;;;12411671;28;20050;-40
2021/07/06 02:24:30;;;;;;;4.63;1.50;;;17.80;99.90;;;;;;12409036;28;20583;-40
2021/07/06 02:30:32;;;;;;;6.20;1.30;;;17.80;99.90;;;;;;12412565;28;20174;-40
2021/07/06 02:36:34;;;;;;;4.93;1.20;;;17.70;99.90;;;;;;12413993;28;20058;-40
2021/07/06 02:42:37;;;;;;;2.55;1.40;;;17.70;99.90;;;;;;12408429;28;20054;-41
2021/07/06 02:48:38;;;;;;;2.20;1.00;;;17.60;99.90;;;;;;12411222;28;20486;-40
2021/07/06 02:54:40;;;;;;;2.25;1.00;;;17.70;99.90;;;;;;12404834;28;20127;-41
2021/07/06 03:00:42;;;;;;;1.70;0.80;;;17.60;99.90;;;;;;12407434;28;20773;-41
2021/07/06 03:06:44;;;;;;;1.90;0.93;;;17.60;99.90;;;;;;12402321;28;20053;-40
2021/07/06 03:12:46;;;;;;;2.67;1.00;;;17.60;99.90;;;;;;12407227;28;20104;-41
2021/07/06 03:18:48;;;;;;;2.83;1.00;;;17.60;99.90;;;;;;12408481;28;20042;-40
2021/07/06 03:24:50;;;;;;;1.25;1.00;;;17.50;99.90;;;;;;12397886;28;20045;-40
2021/07/06 03:30:52;;;;;;;3.38;1.05;;;17.50;99.90;;;;;;12398780;28;20042;-39
2021/07/06 03:36:54;;;;;;;1.80;0.90;;;17.50;99.90;;;;;;12398327;28;20101;-40
2021/07/06 03:42:57;;;;;;;3.58;0.90;;;17.50;99.90;;;;;;12399230;28;20438;-40
2021/07/06 03:49:01;;;;;;;5.00;1.20;;;17.50;99.90;;;;;;12397599;28;20062;-40
2021/07/06 03:55:05;;;;;;;1.88;0.82;;;17.50;99.90;;;;;;12396868;28;20465;-40
2021/07/06 04:01:07;;;;;;;;;;;17.60;99.90;;;;;;12398174;28;20046;-41
2021/07/06 04:07:09;;;;;;;1.73;0.93;;;17.60;99.90;;;;;;12397788;28;19925;-41
2021/07/06 04:13:11;;;;;;;2.63;0.77;;;17.70;99.90;;;;;;12400798;28;20054;-41
2021/07/06 04:19:13;;;;;;;2.70;0.82;;;17.80;99.90;;;;;;12394504;28;20062;-40
2021/07/06 04:25:16;;;;;;;2.72;1.00;;;18.00;99.90;;;;;;12394116;28;20053;-40
2021/07/06 04:31:17;;;;;;;4.80;0.90;;;18.10;99.90;;;;;;12394405;28;20050;-41
2021/07/06 04:37:19;;;;;;;1.38;0.80;;;18.10;99.90;;;;;;12399457;28;20049;-39
2021/07/06 04:43:22;;;;;;;2.92;0.82;;;18.10;99.90;;;;;;12397966;28;20046;-40
2021/07/06 04:49:27;;;;;;;3.33;1.00;;;18.20;99.90;;;;;;12397572;28;20380;-40
2021/07/06 04:55:29;;;;;;;2.00;0.85;;;18.20;99.90;;;;;;12397073;28;20062;-40
2021/07/06 05:01:30;;;;;;;4.00;1.25;;;18.20;99.90;;;;;;12388394;28;20100;-39
2021/07/06 05:07:36;;;;;;;3.92;0.90;;;18.20;99.90;;;;;;12394261;28;20050;-40
2021/07/06 05:13:38;;;;;;;3.03;1.10;;;18.30;99.90;;;;;;12397407;28;20749;-40
2021/07/06 05:19:40;;;;;;;2.13;0.93;;;18.50;99.90;;;;;;12393901;28;20053;-40
2021/07/06 05:25:42;;;;;;;1.30;0.75;;;18.70;99.90;;;;;;12393520;28;20042;-41
2021/07/06 05:31:44;;;;;;;5.80;1.20;;;18.90;99.90;;;;;;12392342;28;20141;-40
2021/07/06 05:37:46;;;;;;;4.82;1.35;;;19.10;99.90;;;;;;12398789;28;20115;-40
2021/07/06 05:43:48;;;;;;;4.95;1.02;;;19.10;99.90;;;;;;12389477;28;20049;-40
2021/07/06 05:49:50;;;;;;;2.92;1.20;;;19.10;99.90;;;;;;12397191;28;20144;-40
2021/07/06 05:55:52;;;;;;;5.25;1.30;;;19.10;99.90;;;;;;12395275;28;20096;-40
2021/07/06 06:01:54;;;;;;;2.83;1.30;;;19.50;99.90;;;;;;12386767;28;20518;-41
2021/07/06 06:07:56;;;;;;;6.10;1.20;;;20.00;99.90;;;;;;12387099;28;20046;-40
2021/07/06 06:13:57;;;;;;;3.33;1.15;;;20.20;99.90;;;;;;12396098;28;20058;-41
2021/07/06 06:19:59;;;;;;;2.83;1.13;;;20.30;99.90;;;;;;12390761;28;20046;-40
2021/07/06 06:26:01;;;;;;;3.95;1.10;;;20.40;99.90;;;;;;12382743;28;20464;-40
2021/07/06 06:32:07;;;;;;;3.03;0.90;;;20.60;99.90;;;;;;12385884;28;20092;-42
2021/07/06 06:38:09;;;;;;;5.68;1.40;;;20.60;99.90;;;;;;12389139;28;20507;-40
2021/07/06 06:44:11;;;;;;;4.15;1.20;;;20.60;99.90;;;;;;12387464;28;20371;-40
2021/07/06 06:50:14;;;;;;;2.63;1.00;;;20.50;99.90;;;;;;12393557;28;20091;-40
2021/07/06 06:56:15;;;;;;;2.17;1.00;;;20.30;99.90;;;;;;12391061;28;20058;-41
2021/07/06 07:02:19;;;;;;;2.75;1.20;;;20.20;99.90;;;;;;12392388;28;20069;-40
2021/07/06 07:08:21;;;;;;;4.25;1.40;;;20.10;99.90;;;;;;12399575;28;20046;-41
2021/07/06 07:14:23;;;;;;;5.78;1.33;;;20.30;99.90;;;;;;12402027;28;20054;-40
2021/07/06 07:20:25;;;;;;;4.88;1.30;;;20.80;99.90;;;;;;12400094;28;20058;-41
2021/07/06 07:26:27;;;;;;;3.60;1.40;;;21.30;99.90;;;;;;12396744;28;20103;-40
2021/07/06 07:32:29;;;;;;;4.40;1.23;;;21.70;99.90;;;;;;12379596;28;20127;-40
2021/07/06 07:38:31;;;;;;;2.53;1.40;;;22.50;99.90;;;;;;12399645;28;20042;-40
2021/07/06 07:44:33;;;;;;;6.68;1.42;;;22.80;99.90;;;;;;12392409;28;20510;-41
2021/07/06 07:50:35;;;;;;;5.80;1.50;;;22.50;99.90;;;;;;12398207;28;20060;-41
2021/07/06 07:56:36;;;;;;;1.95;1.20;;;22.10;99.90;;;;;;12390256;28;20050;-41
2021/07/06 08:02:38;;;;;;;2.63;1.50;;;21.80;99.90;;;;;;12396908;28;20104;-40
2021/07/06 08:08:42;;;;;;;6.95;1.65;;;21.60;99.90;;;;;;12394382;28;20176;-40
2021/07/06 08:14:43;;;;;;;3.75;1.30;;;21.20;99.90;;;;;;12403535;28;20671;-40
2021/07/06 08:20:47;;;;;;;3.13;1.08;;;20.70;99.90;;;;;;12400996;28;20076;-40
2021/07/06 08:26:49;;;;;;;4.05;1.10;;;20.60;99.90;;;;;;12400895;28;20616;-41
2021/07/06 08:32:51;;;;;;;1.67;1.00;;;20.40;99.90;;;;;;12395879;28;20045;-40
2021/07/06 08:38:54;;;;;;;1.73;0.80;;;20.30;99.90;;;;;;12394588;28;20766;-42
2021/07/06 08:44:55;;;;;;;3.22;0.80;;;20.00;99.90;;;;;;12395042;28;20108;-40
2021/07/06 08:50:59;;;;;;;2.08;0.80;;;19.70;99.90;;;;;;12397086;28;20046;-40
2021/07/06 08:57:01;;;;;;;3.17;0.93;;;19.40;99.90;;;;;;12391348;28;20046;-43
2021/07/06 09:03:09;;;;;;;3.47;1.00;;;19.20;99.90;;;;;;12392035;28;20112;-41
2021/07/06 09:09:21;;;;;;;3.00;1.23;;;18.90;99.90;;;;;;12394442;28;20119;-42
2021/07/06 09:15:31;;;;;;;5.00;1.20;;;18.70;99.90;;;;;;12392218;28;20480;-40
2021/07/06 09:21:33;;;;;;;2.22;1.08;;;18.30;99.90;;;;;;12392916;28;20873;-41
2021/07/06 09:27:37;;;;;;;2.33;1.00;;;18.10;99.90;;;;;;12381400;28;20049;-41
2021/07/06 09:33:52;;;;;;;1.75;0.73;;;18.00;99.90;;;;;;12390170;28;20047;-40
2021/07/06 09:39:56;;;;;;;1.60;0.90;;;18.00;99.90;;;;;;12393809;28;20564;-40
2021/07/06 09:46:04;;;;;;;2.50;0.90;;;18.10;99.90;;;;;;12397347;28;20049;-40
2021/07/06 09:52:18;;;;;;;2.63;1.10;;;18.10;99.90;;;;;;12390723;28;20046;-40
2021/07/06 09:58:21;;;;;;;2.40;0.93;;;18.00;99.90;;;;;;12395378;28;20053;-40
2021/07/06 10:04:26;;;;;;;3.63;1.13;;;18.00;99.90;;;;;;12394777;28;20099;-41
2021/07/06 10:10:28;;;;;;;1.95;0.90;;;18.00;99.90;;;;;;12389698;28;20513;-40
2021/07/06 10:16:30;;;;;;;1.38;0.88;;;18.00;99.90;;;;;;12382323;28;20054;-41
2021/07/06 10:22:32;;;;;;;2.08;0.95;;;18.10;99.90;;;;;;12387333;28;20076;-41
2021/07/06 10:28:38;;;;;;;1.70;0.70;;;18.30;99.90;;;;;;12394246;28;20832;-40
2021/07/06 10:34:43;;;;;;;2.58;0.55;;;18.50;99.90;;;;;;12393141;28;20111;-41
2021/07/06 10:40:45;;;;;;;0.82;0.52;;;18.80;99.90;;;;;;12398063;28;20101;-40
2021/07/06 10:46:49;;;;;;;0.98;0.47;;;18.90;99.90;;;;;;12403872;28;20053;-40
2021/07/06 10:53:10;;;;;;;;;;;19.00;99.90;;;;;;12389939;28;20057;-40
2021/07/06 10:59:23;;;;;;;1.15;0.60;;;19.10;99.90;;;;;;12401443;28;20019;-40
2021/07/06 11:05:32;;;;;;;1.20;0.60;;;19.10;99.90;;;;;;12403814;28;20085;-40
2021/07/06 11:11:34;;;;;;;0.65;0.60;;;19.00;99.90;;;;;;12396173;28;20285;-42
2021/07/06 11:17:45;;;;;;;2.93;0.63;;;18.90;99.90;;;;;;12386666;28;20643;-40
2021/07/06 11:24:10;;;;;;;1.38;0.60;;;18.90;99.90;;;;;;12406082;28;20042;-41
2021/07/06 11:30:27;;;;;;;1.17;0.68;;;18.90;99.90;;;;;;12397147;28;20062;-40
2021/07/06 11:36:30;;;;;;;2.75;0.60;;;19.00;99.90;;;;;;12397264;28;20108;-41
2021/07/06 11:42:32;;;;;;;3.45;0.60;;;19.70;99.90;;;;;;12402829;28;20092;-40
2021/07/06 11:48:36;;;;;;;1.27;0.50;;;20.30;99.90;;;;;;12397921;28;20096;-43
2021/07/06 11:54:43;;;;;;;1.42;0.82;;;20.70;99.90;;;;;;12392887;28;20064;-41
2021/07/06 12:00:45;;;;;;;1.52;0.75;;;20.60;99.90;;;;;;12397097;28;20054;-41
2021/07/06 12:06:48;;;;;;;1.50;0.70;;;20.50;99.90;;;;;;12400161;28;20434;-41
2021/07/06 12:13:03;;;;;;;3.95;0.88;;;21.20;99.90;;;;;;12396442;28;20491;-40
2021/07/06 12:19:10;;;;;;;2.13;0.80;;;21.90;99.90;;;;;;12398178;28;20050;-40
2021/07/06 12:25:12;;;;;;;2.70;1.00;;;21.90;99.90;;;;;;12397355;28;20049;-41
2021/07/06 12:31:29;;;;;;;1.65;0.70;;;22.80;99.90;;;;;;12395170;28;20054;-40
2021/07/06 12:37:31;;;;;;;5.32;0.70;;;22.40;99.90;;;;;;12400193;28;20058;-41
2021/07/06 12:43:33;;;;;;;1.20;0.70;;;22.30;99.90;;;;;;12396952;28;20045;-40
2021/07/06 12:49:35;;;;;;;1.60;0.80;;;23.00;99.90;;;;;;12390883;28;20042;-41
2021/07/06 12:55:38;;;;;;;1.35;0.75;;;23.60;99.90;;;;;;12392163;28;20050;-41
2021/07/06 13:01:40;;;;;;;;;;;23.40;99.90;;;;;;12393950;28;20573;-41
2021/07/06 13:07:45;;;;;;;2.05;0.55;;;23.10;99.90;;;;;;12397848;28;19926;-41
2021/07/06 13:13:46;;;;;;;1.63;0.50;;;22.60;99.90;;;;;;12392525;28;20104;-41
2021/07/06 13:19:58;;;;;;;0.57;0.40;;;22.50;99.90;;;;;;12397407;28;20050;-42
2021/07/06 13:26:04;;;;;;;2.10;0.75;;;22.40;99.90;;;;;;12388525;28;20114;-41
2021/07/06 13:32:06;;;;;;;0.90;0.47;;;22.80;99.90;;;;;;12387080;28;20058;-40
2021/07/06 13:38:07;;;;;;;3.28;0.80;;;22.30;99.90;;;;;;12393338;28;20092;-41
2021/07/06 13:44:09;;;;;;;2.75;0.52;;;22.10;99.90;;;;;;12396249;28;20046;-41
2021/07/06 13:50:14;;;;;;;3.58;0.60;;;22.80;99.90;;;;;;12387043;28;20491;-41
2021/07/06 13:56:15;;;;;;;4.93;0.90;;;22.60;99.90;;;;;;12392496;28;20054;-40
2021/07/06 14:02:19;;;;;;;1.52;0.50;;;22.20;99.90;;;;;;12386801;28;20056;-41
2021/07/06 14:08:21;;;;;;;0.65;0.40;;;22.10;99.90;;;;;;12389200;28;20058;-43
2021/07/06 14:14:23;;;;;;;1.38;0.40;;;22.00;99.90;;;;;;12383241;28;20042;-40
2021/07/06 14:20:25;;;;;;;1.15;0.63;;;22.00;99.90;;;;;;12393468;28;20069;-41
2021/07/06 14:26:27;;;;;;;1.20;0.70;;;22.00;99.90;;;;;;12390967;28;20169;-41
2021/07/06 14:32:37;;;;;;;2.00;0.60;;;22.20;99.90;;;;;;12390129;28;20132;-41
2021/07/06 14:38:39;;;;;;;2.53;0.70;;;22.10;99.90;;;;;;12389164;28;20047;-41
2021/07/06 14:44:41;;;;;;;1.67;0.50;;;21.90;99.90;;;;;;12394075;28;20115;-41
2021/07/06 14:50:43;;;;;;;5.80;0.65;;;21.60;99.90;;;;;;12391285;28;20062;-41
2021/07/06 14:56:45;;;;;;;1.15;0.50;;;21.50;99.90;;;;;;12389280;28;20064;-41
2021/07/06 15:02:47;;;;;;;4.32;0.73;;;21.40;99.90;;;;;;12392975;28;20046;-41
2021/07/06 15:08:49;;;;;;;2.17;0.65;;;21.40;99.90;;;;;;12395019;28;20072;-41
2021/07/06 15:14:51;;;;;;;3.65;0.57;;;21.40;99.90;;;;;;12390819;28;20374;-41
2021/07/06 15:20:54;;;;;;;3.42;0.80;;;21.40;99.90;;;;;;12390523;28;20053;-40
2021/07/06 15:26:55;;;;;;;2.03;0.57;;;21.40;99.90;;;;;;12397784;28;20108;-41
2021/07/06 15:32:57;;;;;;;2.40;0.40;;;21.30;99.90;;;;;;12394954;28;20050;-41
2021/07/06 15:39:00;;;;;;;4.35;0.50;;;21.30;99.90;;;;;;12394875;28;20384;-42
2021/07/06 15:45:03;;;;;;;1.35;0.43;;;21.20;99.90;;;;;;12402749;28;20069;-40
2021/07/06 15:51:06;;;;;;;1.17;0.50;;;21.10;99.90;;;;;;12391619;28;20072;-42
2021/07/06 15:57:08;;;;;;;4.22;0.70;;;21.30;99.90;;;;;;12400210;28;20481;-41
2021/07/06 16:03:10;;;;;;;2.42;0.50;;;21.40;99.90;;;;;;12396098;28;20977;-41
2021/07/06 16:09:13;;;;;;;5.15;0.70;;;21.60;99.90;;;;;;12396412;28;20137;-40
2021/07/06 16:15:17;;;;;;;2.15;0.50;;;21.60;99.90;;;;;;12395709;28;20056;-41
2021/07/06 16:21:20;;;;;;;4.60;0.40;;;21.60;99.90;;;;;;12392137;28;20046;-41
2021/07/06 16:27:23;;;;;;;2.70;0.60;;;21.60;99.90;;;;;;12391593;28;20066;-40
2021/07/06 16:33:25;;;;;;;5.50;0.60;;;21.70;99.90;;;;;;12396513;28;20104;-41
2021/07/06 16:39:27;;;;;;;2.03;0.47;;;22.00;99.90;;;;;;12388795;28;20148;-41
2021/07/06 16:45:29;;;;;;;4.32;0.60;;;21.90;99.90;;;;;;12393971;28;20035;-41
2021/07/06 18:07:56;;;;;;;4.13;0.68;;;20.30;99.90;;;;;;12386934;28;20073;-40
2021/07/06 18:13:57;;;;;;;2.88;0.95;;;20.30;99.90;;;;;;12392411;28;20108;-40
2021/07/06 18:20:01;;;;;;;4.93;0.80;;;20.20;99.90;;;;;;12394229;28;20112;-41
2021/07/06 18:26:03;;;;;;;3.30;1.00;;;20.20;99.90;;;;;;12397068;28;20058;-41
2021/07/06 18:32:05;;;;;;;3.05;0.90;;;20.10;99.90;;;;;;12388324;28;20058;-40
2021/07/06 18:38:07;;;;;;;5.25;0.75;;;20.10;99.90;;;;;;12387662;28;20400;-41
2021/07/06 18:44:15;;;;;;;4.90;0.90;;;20.00;99.90;;;;;;12392175;28;20046;-40
2021/07/06 18:50:17;;;;;;;8.05;1.20;;;20.10;99.90;;;;;;12386336;28;20054;-41
2021/07/06 18:56:20;;;;;;;4.13;0.95;;;20.10;99.90;;;;;;12396607;28;20050;-40
2021/07/06 19:08:42;;;;;;;8.45;1.20;;;19.80;99.90;;;;;;12399045;28;20182;-40
2021/07/06 19:14:44;;;;;;;3.85;1.05;;;19.80;99.90;;;;;;12398114;28;20043;-40
2021/07/06 19:20:46;;;;;;;4.63;1.15;;;19.70;99.90;;;;;;12400624;28;20042;-40
2021/07/06 19:26:52;;;;;;;3.83;0.90;;;19.70;99.90;;;;;;12396094;28;20136;-41
2021/07/06 19:33:08;;;;;;;7.15;1.27;;;19.70;99.90;;;;;;12402104;28;20045;-40
2021/07/06 19:39:10;;;;;;;6.38;1.40;;;19.60;99.90;;;;;;12398383;28;20053;-42
2021/07/06 19:45:12;;;;;;;4.05;1.10;;;19.60;99.90;;;;;;12395033;28;20096;-40
2021/07/06 19:51:14;;;;;;;6.22;1.20;;;19.50;99.90;;;;;;12397614;28;20054;-40
2021/07/06 19:57:17;;;;;;;5.15;1.15;;;19.50;99.90;;;;;;12398924;28;20544;-41
2021/07/06 20:03:21;;;;;;;4.53;1.40;;;19.40;99.90;;;;;;12401849;28;20050;-40
2021/07/06 20:09:23;;;;;;;6.53;1.23;;;19.30;99.90;;;;;;12395707;28;20453;-40
2021/07/06 20:15:25;;;;;;;6.15;1.23;;;19.30;99.90;;;;;;12394821;28;20147;-40
2021/07/06 20:21:27;;;;;;;6.72;1.40;;;19.20;99.90;;;;;;12399450;28;20465;-40
2021/07/06 20:27:28;;;;;;;5.38;1.30;;;19.10;99.90;;;;;;12398523;28;20110;-41
2021/07/06 20:33:31;;;;;;;6.00;1.10;;;18.90;99.90;;;;;;12396762;28;20054;-42
2021/07/06 20:39:33;;;;;;;3.95;1.08;;;18.80;99.90;;;;;;12396739;28;20053;-40
2021/07/06 20:45:35;;;;;;;7.95;1.23;;;18.70;99.90;;;;;;12396505;28;20112;-43
2021/07/06 20:51:38;;;;;;;11.18;2.17;;;18.60;99.90;;;;;;12392820;28;20049;-39
2021/07/06 20:57:40;;;;;;;9.63;2.10;;;18.50;99.90;;;;;;12392645;28;20045;-40
2021/07/06 21:03:42;;;;;;;4.22;1.52;;;18.50;99.90;;;;;;12397298;28;20813;-40
2021/07/06 21:09:44;;;;;;;8.50;1.73;;;18.50;99.90;;;;;;12395556;28;20050;-41
2021/07/06 21:15:46;;;;;;;6.03;1.50;;;18.30;99.90;;;;;;12394650;28;20482;-41
2021/07/06 21:21:48;;;;;;;5.28;1.27;;;18.10;99.90;;;;;;12387887;28;20080;-41
2021/07/06 21:27:50;;;;;;;4.80;1.30;;;18.00;99.90;;;;;;12396400;28;20073;-41
2021/07/06 21:33:52;;;;;;;6.47;1.42;;;18.00;99.90;;;;;;12394332;28;20107;-40
2021/07/06 21:39:54;;;;;;;6.65;2.13;;;17.90;99.90;;;;;;12393638;28;20038;-40
2021/07/06 21:45:56;;;;;;;10.32;2.30;;;18.00;99.90;;;;;;12389931;28;20088;-41
2021/07/06 21:52:00;;;;;;;8.52;2.58;;;18.00;99.90;;;;;;12396147;28;20038;-40
2021/07/06 21:58:02;;;;;;;7.95;1.58;;;17.90;99.90;;;;;;12395105;28;20552;-40
2021/07/06 22:04:04;;;;;;;7.28;2.10;;;17.80;99.90;;;;;;12390646;28;20050;-40
2021/07/06 22:10:10;;;;;;;6.25;1.20;;;17.70;99.90;;;;;;12387625;28;20104;-41
2021/07/06 22:16:12;;;;;;;5.55;0.98;;;17.70;99.90;;;;;;12391331;28;20157;-40
2021/07/06 22:22:14;;;;;;;4.78;1.05;;;17.80;99.90;;;;;;12391943;28;20053;-41
2021/07/06 22:28:17;;;;;;;7.22;1.27;;;17.70;99.90;;;;;;12388286;28;20058;-40
2021/07/06 22:34:19;;;;;;;6.40;1.20;;;17.40;99.90;;;;;;12394779;28;20177;-40
2021/07/06 22:40:21;;;;;;;8.75;1.27;;;17.40;99.90;;;;;;12396409;28;20058;-41
2021/07/06 22:46:22;;;;;;;3.50;1.13;;;17.20;99.90;;;;;;12405796;28;20065;-40
2021/07/06 22:52:24;;;;;;;7.60;1.42;;;17.30;99.90;;;;;;12402100;28;20561;-39
2021/07/06 22:58:28;;;;;;;5.38;0.98;;;17.20;99.90;;;;;;12398180;28;20498;-39
2021/07/06 23:04:30;;;;;;;3.53;0.87;;;17.10;99.90;;;;;;12396571;28;20054;-41
2021/07/06 23:10:32;;;;;;;3.42;1.00;;;17.00;99.90;;;;;;12398344;28;20297;-39
2021/07/06 23:16:33;;;;;;;5.07;1.00;;;16.90;99.90;;;;;;12399177;28;20116;-40
2021/07/06 23:22:35;;;;;;;2.67;0.80;;;16.80;99.90;;;;;;12400300;28;20050;-39
2021/07/06 23:28:37;;;;;;;3.65;1.00;;;16.80;99.90;;;;;;12398957;28;20045;-39
2021/07/06 23:34:39;;;;;;;4.45;1.00;;;16.70;99.90;;;;;;12394932;28;20100;-41
2021/07/06 23:40:41;;;;;;;7.43;1.20;;;16.70;99.90;;;;;;12395451;28;20041;-40
2021/07/06 23:46:43;;;;;;;2.70;1.05;;;16.50;99.90;;;;;;12393086;28;20138;-39
2021/07/06 23:52:45;;;;;;;4.22;0.98;;;16.50;99.90;;;;;;12404416;28;20046;-40
2021/07/06 23:58:47;;;;;;;3.97;1.15;;;16.50;99.90;;;;;;12387326;28;20058;-39
